sensor_id;sensor_type;location;lat;lon;timestamp;P1;durP1;ratioP1;P2;durP2;ratioP2
37069;SDS011;22984;48.862;9.320;2022-10-16T00:00:34;2.78;;;1.02;;
37069;SDS011;22984;48.862;9.320;2022-10-16T00:03:01;2.78;;;1.08;;
37069;SDS011;22984;48.862;9.320;2022-10-16T00:05:27;1.77;;;1.00;;
37069;SDS011;22984;48.862;9.320;2022-10-16T00:07:53;3.95;;;0.77;;
37069;SDS011;22984;48.862;9.320;2022-10-16T00:10:19;2.10;;;0.90;;
37069;SDS011;22984;48.862;9.320;2022-10-16T00:12:45;2.15;;;0.85;;
37069;SDS011;22984;48.862;9.320;2022-10-16T00:15:11;3.08;;;0.93;;
37069;SDS011;22984;48.862;9.320;2022-10-16T00:17:37;1.30;;;0.80;;
37069;SDS011;22984;48.862;9.320;2022-10-16T00:20:04;2.22;;;0.75;;
37069;SDS011;22984;48.862;9.320;2022-10-16T00:22:30;18.60;;;1.77;;
37069;SDS011;22984;48.862;9.320;2022-10-16T00:24:56;1.40;;;1.00;;
37069;SDS011;22984;48.862;9.320;2022-10-16T00:27:22;1.92;;;0.65;;
37069;SDS011;22984;48.862;9.320;2022-10-16T00:29:51;1.50;;;0.70;;
37069;SDS011;22984;48.862;9.320;2022-10-16T00:32:18;0.80;;;0.80;;
37069;SDS011;22984;48.862;9.320;2022-10-16T00:34:44;2.90;;;0.68;;
37069;SDS011;22984;48.862;9.320;2022-10-16T00:37:11;1.83;;;0.80;;
37069;SDS011;22984;48.862;9.320;2022-10-16T00:39:37;2.15;;;0.80;;
37069;SDS011;22984;48.862;9.320;2022-10-16T00:42:03;2.80;;;0.75;;
37069;SDS011;22984;48.862;9.320;2022-10-16T00:44:43;1.83;;;0.73;;
37069;SDS011;22984;48.862;9.320;2022-10-16T00:47:11;1.75;;;0.80;;
37069;SDS011;22984;48.862;9.320;2022-10-16T00:49:37;2.25;;;0.90;;
37069;SDS011;22984;48.862;9.320;2022-10-16T00:52:03;5.07;;;1.08;;
37069;SDS011;22984;48.862;9.320;2022-10-16T00:54:31;2.15;;;0.80;;
37069;SDS011;22984;48.862;9.320;2022-10-16T00:56:58;1.92;;;0.70;;
37069;SDS011;22984;48.862;9.320;2022-10-16T00:59:29;3.20;;;0.80;;
37069;SDS011;22984;48.862;9.320;2022-10-16T01:01:56;1.63;;;0.70;;
37069;SDS011;22984;48.862;9.320;2022-10-16T01:04:23;3.30;;;0.77;;
37069;SDS011;22984;48.862;9.320;2022-10-16T01:06:51;2.20;;;0.68;;
37069;SDS011;22984;48.862;9.320;2022-10-16T01:09:22;1.75;;;0.80;;
37069;SDS011;22984;48.862;9.320;2022-10-16T01:14:20;0.88;;;0.63;;
37069;SDS011;22984;48.862;9.320;2022-10-16T01:16:58;5.88;;;1.10;;
37069;SDS011;22984;48.862;9.320;2022-10-16T01:19:31;1.98;;;0.95;;
37069;SDS011;22984;48.862;9.320;2022-10-16T01:22:01;2.40;;;0.80;;
37069;SDS011;22984;48.862;9.320;2022-10-16T01:24:31;8.65;;;0.82;;
37069;SDS011;22984;48.862;9.320;2022-10-16T01:27:31;2.55;;;1.08;;
37069;SDS011;22984;48.862;9.320;2022-10-16T01:34:52;2.20;;;0.70;;
37069;SDS011;22984;48.862;9.320;2022-10-16T01:38:03;1.60;;;0.60;;
37069;SDS011;22984;48.862;9.320;2022-10-16T01:40:09;2.05;;;0.90;;
37069;SDS011;22984;48.862;9.320;2022-10-16T01:42:38;3.85;;;0.82;;
37069;SDS011;22984;48.862;9.320;2022-10-16T01:45:05;2.17;;;0.80;;
37069;SDS011;22984;48.862;9.320;2022-10-16T01:47:32;6.10;;;1.00;;
37069;SDS011;22984;48.862;9.320;2022-10-16T01:50:01;2.97;;;0.82;;
37069;SDS011;22984;48.862;9.320;2022-10-16T01:52:29;4.80;;;0.85;;
37069;SDS011;22984;48.862;9.320;2022-10-16T01:54:57;8.02;;;1.55;;
37069;SDS011;22984;48.862;9.320;2022-10-16T01:57:25;1.80;;;0.80;;
37069;SDS011;22984;48.862;9.320;2022-10-16T01:59:52;4.53;;;0.75;;
37069;SDS011;22984;48.862;9.320;2022-10-16T02:02:19;4.38;;;0.98;;
37069;SDS011;22984;48.862;9.320;2022-10-16T02:04:47;2.15;;;0.77;;
37069;SDS011;22984;48.862;9.320;2022-10-16T02:07:14;2.30;;;0.70;;
37069;SDS011;22984;48.862;9.320;2022-10-16T02:09:41;2.70;;;0.60;;
37069;SDS011;22984;48.862;9.320;2022-10-16T02:12:15;1.23;;;0.60;;
37069;SDS011;22984;48.862;9.320;2022-10-16T02:14:41;2.00;;;0.70;;
37069;SDS011;22984;48.862;9.320;2022-10-16T02:17:15;1.35;;;0.50;;
37069;SDS011;22984;48.862;9.320;2022-10-16T02:19:41;2.15;;;0.68;;
37069;SDS011;22984;48.862;9.320;2022-10-16T02:22:08;0.80;;;0.60;;
37069;SDS011;22984;48.862;9.320;2022-10-16T02:24:41;1.40;;;0.32;;
37069;SDS011;22984;48.862;9.320;2022-10-16T02:27:19;3.00;;;0.50;;
37069;SDS011;22984;48.862;9.320;2022-10-16T02:29:49;2.03;;;0.50;;
37069;SDS011;22984;48.862;9.320;2022-10-16T02:32:19;1.63;;;0.60;;
37069;SDS011;22984;48.862;9.320;2022-10-16T02:34:47;1.90;;;0.50;;
37069;SDS011;22984;48.862;9.320;2022-10-16T02:37:14;2.03;;;0.70;;
37069;SDS011;22984;48.862;9.320;2022-10-16T02:39:40;2.42;;;0.60;;
37069;SDS011;22984;48.862;9.320;2022-10-16T02:42:11;3.93;;;0.63;;
37069;SDS011;22984;48.862;9.320;2022-10-16T02:44:37;3.20;;;0.63;;
37069;SDS011;22984;48.862;9.320;2022-10-16T02:47:03;3.20;;;0.70;;
37069;SDS011;22984;48.862;9.320;2022-10-16T02:49:29;3.27;;;0.40;;
37069;SDS011;22984;48.862;9.320;2022-10-16T02:51:55;6.80;;;0.60;;
37069;SDS011;22984;48.862;9.320;2022-10-16T02:54:22;1.35;;;0.50;;
37069;SDS011;22984;48.862;9.320;2022-10-16T02:56:48;1.70;;;0.50;;
37069;SDS011;22984;48.862;9.320;2022-10-16T02:59:14;1.63;;;0.50;;
37069;SDS011;22984;48.862;9.320;2022-10-16T03:01:40;2.13;;;0.50;;
37069;SDS011;22984;48.862;9.320;2022-10-16T03:04:06;3.10;;;0.50;;
37069;SDS011;22984;48.862;9.320;2022-10-16T03:06:33;1.67;;;0.50;;
37069;SDS011;22984;48.862;9.320;2022-10-16T03:08:59;3.40;;;0.60;;
37069;SDS011;22984;48.862;9.320;2022-10-16T03:11:25;3.80;;;0.60;;
37069;SDS011;22984;48.862;9.320;2022-10-16T03:13:51;3.65;;;0.63;;
37069;SDS011;22984;48.862;9.320;2022-10-16T03:16:20;5.07;;;1.20;;
37069;SDS011;22984;48.862;9.320;2022-10-16T03:18:50;3.23;;;0.40;;
37069;SDS011;22984;48.862;9.320;2022-10-16T03:21:16;2.67;;;0.77;;
37069;SDS011;22984;48.862;9.320;2022-10-16T03:23:45;2.45;;;0.60;;
37069;SDS011;22984;48.862;9.320;2022-10-16T03:26:14;4.40;;;0.50;;
37069;SDS011;22984;48.862;9.320;2022-10-16T03:28:42;1.60;;;0.75;;
37069;SDS011;22984;48.862;9.320;2022-10-16T03:31:10;1.38;;;0.55;;
37069;SDS011;22984;48.862;9.320;2022-10-16T03:33:36;3.90;;;0.68;;
37069;SDS011;22984;48.862;9.320;2022-10-16T03:36:03;7.03;;;0.90;;
37069;SDS011;22984;48.862;9.320;2022-10-16T03:38:30;4.37;;;0.80;;
37069;SDS011;22984;48.862;9.320;2022-10-16T03:40:58;4.10;;;0.80;;
37069;SDS011;22984;48.862;9.320;2022-10-16T03:43:27;1.40;;;0.60;;
37069;SDS011;22984;48.862;9.320;2022-10-16T03:45:54;4.00;;;1.00;;
37069;SDS011;22984;48.862;9.320;2022-10-16T03:48:22;2.95;;;0.90;;
37069;SDS011;22984;48.862;9.320;2022-10-16T03:50:52;5.03;;;0.90;;
37069;SDS011;22984;48.862;9.320;2022-10-16T03:53:22;4.80;;;0.82;;
37069;SDS011;22984;48.862;9.320;2022-10-16T03:55:52;2.70;;;1.10;;
37069;SDS011;22984;48.862;9.320;2022-10-16T03:58:19;3.80;;;1.10;;
37069;SDS011;22984;48.862;9.320;2022-10-16T04:00:48;3.95;;;1.52;;
37069;SDS011;22984;48.862;9.320;2022-10-16T04:03:18;2.30;;;1.20;;
37069;SDS011;22984;48.862;9.320;2022-10-16T04:05:50;4.73;;;1.57;;
37069;SDS011;22984;48.862;9.320;2022-10-16T04:08:18;2.70;;;1.42;;
37069;SDS011;22984;48.862;9.320;2022-10-16T04:10:47;3.30;;;1.77;;
37069;SDS011;22984;48.862;9.320;2022-10-16T04:13:18;5.30;;;1.77;;
37069;SDS011;22984;48.862;9.320;2022-10-16T04:15:49;8.00;;;1.95;;
37069;SDS011;22984;48.862;9.320;2022-10-16T04:18:18;5.60;;;2.40;;
37069;SDS011;22984;48.862;9.320;2022-10-16T04:20:50;3.35;;;1.50;;
37069;SDS011;22984;48.862;9.320;2022-10-16T04:23:20;6.20;;;1.55;;
37069;SDS011;22984;48.862;9.320;2022-10-16T04:25:49;3.30;;;1.77;;
37069;SDS011;22984;48.862;9.320;2022-10-16T04:28:18;7.55;;;2.10;;
37069;SDS011;22984;48.862;9.320;2022-10-16T04:30:47;2.97;;;1.55;;
37069;SDS011;22984;48.862;9.320;2022-10-16T04:33:15;1.50;;;1.40;;
37069;SDS011;22984;48.862;9.320;2022-10-16T04:35:44;4.97;;;1.50;;
37069;SDS011;22984;48.862;9.320;2022-10-16T04:38:11;4.35;;;1.67;;
37069;SDS011;22984;48.862;9.320;2022-10-16T04:40:41;4.95;;;1.27;;
37069;SDS011;22984;48.862;9.320;2022-10-16T04:43:09;7.43;;;1.40;;
37069;SDS011;22984;48.862;9.320;2022-10-16T04:45:37;3.33;;;1.15;;
37069;SDS011;22984;48.862;9.320;2022-10-16T04:48:06;1.77;;;1.02;;
37069;SDS011;22984;48.862;9.320;2022-10-16T04:50:32;4.07;;;1.20;;
37069;SDS011;22984;48.862;9.320;2022-10-16T04:52:59;2.67;;;0.73;;
37069;SDS011;22984;48.862;9.320;2022-10-16T04:55:27;2.35;;;0.93;;
37069;SDS011;22984;48.862;9.320;2022-10-16T04:57:54;1.83;;;0.85;;
37069;SDS011;22984;48.862;9.320;2022-10-16T05:00:20;3.05;;;0.77;;
37069;SDS011;22984;48.862;9.320;2022-10-16T05:02:49;2.83;;;0.80;;
37069;SDS011;22984;48.862;9.320;2022-10-16T05:05:15;5.00;;;1.00;;
37069;SDS011;22984;48.862;9.320;2022-10-16T05:07:45;4.10;;;0.70;;
37069;SDS011;22984;48.862;9.320;2022-10-16T05:10:13;2.17;;;0.70;;
37069;SDS011;22984;48.862;9.320;2022-10-16T05:12:41;2.70;;;0.80;;
37069;SDS011;22984;48.862;9.320;2022-10-16T05:15:09;3.05;;;0.82;;
37069;SDS011;22984;48.862;9.320;2022-10-16T05:17:42;2.60;;;0.93;;
37069;SDS011;22984;48.862;9.320;2022-10-16T05:20:10;5.47;;;0.90;;
37069;SDS011;22984;48.862;9.320;2022-10-16T05:22:38;4.47;;;1.45;;
37069;SDS011;22984;48.862;9.320;2022-10-16T05:25:06;2.47;;;1.20;;
37069;SDS011;22984;48.862;9.320;2022-10-16T05:27:36;3.38;;;2.08;;
37069;SDS011;22984;48.862;9.320;2022-10-16T05:30:04;5.10;;;2.50;;
37069;SDS011;22984;48.862;9.320;2022-10-16T05:32:31;4.20;;;1.80;;
37069;SDS011;22984;48.862;9.320;2022-10-16T05:34:58;4.40;;;1.15;;
37069;SDS011;22984;48.862;9.320;2022-10-16T05:37:25;3.85;;;0.80;;
37069;SDS011;22984;48.862;9.320;2022-10-16T05:39:53;2.33;;;1.00;;
37069;SDS011;22984;48.862;9.320;2022-10-16T05:42:22;1.75;;;1.00;;
37069;SDS011;22984;48.862;9.320;2022-10-16T05:44:48;2.88;;;1.10;;
37069;SDS011;22984;48.862;9.320;2022-10-16T05:47:16;2.85;;;1.33;;
37069;SDS011;22984;48.862;9.320;2022-10-16T05:49:46;3.10;;;1.10;;
37069;SDS011;22984;48.862;9.320;2022-10-16T05:52:13;8.98;;;2.28;;
37069;SDS011;22984;48.862;9.320;2022-10-16T05:54:40;7.10;;;2.80;;
37069;SDS011;22984;48.862;9.320;2022-10-16T05:57:06;3.45;;;3.00;;
37069;SDS011;22984;48.862;9.320;2022-10-16T05:59:33;8.25;;;3.05;;
37069;SDS011;22984;48.862;9.320;2022-10-16T06:02:01;4.05;;;3.28;;
37069;SDS011;22984;48.862;9.320;2022-10-16T06:04:28;8.68;;;6.13;;
37069;SDS011;22984;48.862;9.320;2022-10-16T06:06:57;15.52;;;9.73;;
37069;SDS011;22984;48.862;9.320;2022-10-16T06:09:26;14.73;;;8.25;;
37069;SDS011;22984;48.862;9.320;2022-10-16T06:11:52;15.48;;;7.80;;
37069;SDS011;22984;48.862;9.320;2022-10-16T06:14:19;9.20;;;5.25;;
37069;SDS011;22984;48.862;9.320;2022-10-16T06:16:46;7.60;;;3.67;;
37069;SDS011;22984;48.862;9.320;2022-10-16T06:19:13;8.00;;;2.70;;
37069;SDS011;22984;48.862;9.320;2022-10-16T06:21:41;5.28;;;2.00;;
37069;SDS011;22984;48.862;9.320;2022-10-16T06:24:07;2.15;;;1.10;;
37069;SDS011;22984;48.862;9.320;2022-10-16T06:26:33;4.23;;;1.40;;
37069;SDS011;22984;48.862;9.320;2022-10-16T06:28:59;4.25;;;1.35;;
37069;SDS011;22984;48.862;9.320;2022-10-16T06:31:26;4.60;;;1.20;;
37069;SDS011;22984;48.862;9.320;2022-10-16T06:33:55;2.53;;;1.17;;
37069;SDS011;22984;48.862;9.320;2022-10-16T06:36:21;4.95;;;0.98;;
37069;SDS011;22984;48.862;9.320;2022-10-16T06:38:47;6.68;;;1.50;;
37069;SDS011;22984;48.862;9.320;2022-10-16T06:41:18;2.45;;;1.20;;
37069;SDS011;22984;48.862;9.320;2022-10-16T06:43:44;4.95;;;1.40;;
37069;SDS011;22984;48.862;9.320;2022-10-16T06:46:11;3.70;;;0.87;;
37069;SDS011;22984;48.862;9.320;2022-10-16T06:48:37;5.20;;;1.17;;
37069;SDS011;22984;48.862;9.320;2022-10-16T06:51:08;2.75;;;0.98;;
37069;SDS011;22984;48.862;9.320;2022-10-16T06:53:35;4.10;;;1.10;;
37069;SDS011;22984;48.862;9.320;2022-10-16T06:56:11;4.05;;;1.00;;
37069;SDS011;22984;48.862;9.320;2022-10-16T06:58:37;4.05;;;1.10;;
37069;SDS011;22984;48.862;9.320;2022-10-16T07:01:04;3.05;;;1.33;;
37069;SDS011;22984;48.862;9.320;2022-10-16T07:03:30;2.58;;;1.33;;
37069;SDS011;22984;48.862;9.320;2022-10-16T07:05:56;6.85;;;2.10;;
37069;SDS011;22984;48.862;9.320;2022-10-16T07:08:22;5.40;;;1.63;;
37069;SDS011;22984;48.862;9.320;2022-10-16T07:10:48;6.88;;;1.60;;
37069;SDS011;22984;48.862;9.320;2022-10-16T07:13:23;7.07;;;1.40;;
37069;SDS011;22984;48.862;9.320;2022-10-16T07:15:49;4.25;;;1.50;;
37069;SDS011;22984;48.862;9.320;2022-10-16T07:18:15;5.25;;;1.48;;
37069;SDS011;22984;48.862;9.320;2022-10-16T07:20:41;7.80;;;1.30;;
37069;SDS011;22984;48.862;9.320;2022-10-16T07:23:07;6.20;;;1.13;;
37069;SDS011;22984;48.862;9.320;2022-10-16T07:25:33;5.53;;;1.23;;
37069;SDS011;22984;48.862;9.320;2022-10-16T07:27:59;2.95;;;1.15;;
37069;SDS011;22984;48.862;9.320;2022-10-16T07:30:25;4.68;;;1.10;;
37069;SDS011;22984;48.862;9.320;2022-10-16T07:32:51;6.20;;;1.33;;
37069;SDS011;22984;48.862;9.320;2022-10-16T07:35:17;5.20;;;1.05;;
37069;SDS011;22984;48.862;9.320;2022-10-16T07:37:44;3.75;;;1.30;;
37069;SDS011;22984;48.862;9.320;2022-10-16T07:40:10;3.85;;;1.10;;
37069;SDS011;22984;48.862;9.320;2022-10-16T07:42:36;4.55;;;1.10;;
37069;SDS011;22984;48.862;9.320;2022-10-16T07:45:02;7.40;;;1.20;;
37069;SDS011;22984;48.862;9.320;2022-10-16T07:47:28;1.90;;;1.40;;
37069;SDS011;22984;48.862;9.320;2022-10-16T07:49:54;4.75;;;1.48;;
37069;SDS011;22984;48.862;9.320;2022-10-16T07:52:20;5.53;;;1.75;;
37069;SDS011;22984;48.862;9.320;2022-10-16T07:54:46;5.43;;;1.48;;
37069;SDS011;22984;48.862;9.320;2022-10-16T07:57:12;1.75;;;1.20;;
37069;SDS011;22984;48.862;9.320;2022-10-16T07:59:44;3.57;;;1.23;;
37069;SDS011;22984;48.862;9.320;2022-10-16T08:02:10;1.90;;;1.42;;
37069;SDS011;22984;48.862;9.320;2022-10-16T08:04:36;3.88;;;0.75;;
37069;SDS011;22984;48.862;9.320;2022-10-16T08:07:02;4.43;;;0.88;;
37069;SDS011;22984;48.862;9.320;2022-10-16T08:09:28;4.25;;;1.00;;
37069;SDS011;22984;48.862;9.320;2022-10-16T08:11:54;3.15;;;0.80;;
37069;SDS011;22984;48.862;9.320;2022-10-16T08:14:20;4.85;;;0.90;;
37069;SDS011;22984;48.862;9.320;2022-10-16T08:16:46;6.60;;;1.00;;
37069;SDS011;22984;48.862;9.320;2022-10-16T08:19:12;5.80;;;0.93;;
37069;SDS011;22984;48.862;9.320;2022-10-16T08:21:40;7.50;;;1.42;;
37069;SDS011;22984;48.862;9.320;2022-10-16T08:24:06;6.20;;;0.80;;
37069;SDS011;22984;48.862;9.320;2022-10-16T08:26:32;3.03;;;0.68;;
37069;SDS011;22984;48.862;9.320;2022-10-16T08:28:58;2.05;;;0.45;;
37069;SDS011;22984;48.862;9.320;2022-10-16T08:31:24;2.67;;;0.50;;
37069;SDS011;22984;48.862;9.320;2022-10-16T08:33:52;4.75;;;0.70;;
37069;SDS011;22984;48.862;9.320;2022-10-16T08:36:18;3.72;;;0.73;;
37069;SDS011;22984;48.862;9.320;2022-10-16T08:38:46;5.25;;;0.80;;
37069;SDS011;22984;48.862;9.320;2022-10-16T08:49:11;2.97;;;0.60;;
37069;SDS011;22984;48.862;9.320;2022-10-16T08:51:31;1.88;;;0.70;;
37069;SDS011;22984;48.862;9.320;2022-10-16T08:54:04;2.97;;;0.70;;
37069;SDS011;22984;48.862;9.320;2022-10-16T08:56:30;7.10;;;0.70;;
37069;SDS011;22984;48.862;9.320;2022-10-16T08:58:58;2.75;;;0.55;;
37069;SDS011;22984;48.862;9.320;2022-10-16T09:01:26;1.02;;;0.60;;
37069;SDS011;22984;48.862;9.320;2022-10-16T09:04:02;2.85;;;0.80;;
37069;SDS011;22984;48.862;9.320;2022-10-16T09:11:46;3.85;;;0.77;;
37069;SDS011;22984;48.862;9.320;2022-10-16T09:16:44;3.65;;;0.63;;
37069;SDS011;22984;48.862;9.320;2022-10-16T09:19:14;2.70;;;0.60;;
37069;SDS011;22984;48.862;9.320;2022-10-16T09:21:43;2.83;;;1.00;;
37069;SDS011;22984;48.862;9.320;2022-10-16T09:26:38;2.00;;;1.80;;
37069;SDS011;22984;48.862;9.320;2022-10-16T09:29:05;3.15;;;1.77;;
37069;SDS011;22984;48.862;9.320;2022-10-16T09:31:31;4.38;;;1.60;;
37069;SDS011;22984;48.862;9.320;2022-10-16T09:34:00;4.70;;;1.63;;
37069;SDS011;22984;48.862;9.320;2022-10-16T09:36:31;2.85;;;1.10;;
37069;SDS011;22984;48.862;9.320;2022-10-16T09:39:05;1.30;;;0.53;;
37069;SDS011;22984;48.862;9.320;2022-10-16T09:41:34;3.70;;;0.70;;
37069;SDS011;22984;48.862;9.320;2022-10-16T09:44:00;4.50;;;0.70;;
37069;SDS011;22984;48.862;9.320;2022-10-16T09:48:54;5.78;;;0.88;;
37069;SDS011;22984;48.862;9.320;2022-10-16T09:51:33;1.90;;;0.60;;
37069;SDS011;22984;48.862;9.320;2022-10-16T09:56:35;2.25;;;0.80;;
37069;SDS011;22984;48.862;9.320;2022-10-16T09:59:08;3.30;;;1.00;;
37069;SDS011;22984;48.862;9.320;2022-10-16T10:01:43;3.50;;;0.63;;
37069;SDS011;22984;48.862;9.320;2022-10-16T10:04:10;0.60;;;0.50;;
37069;SDS011;22984;48.862;9.320;2022-10-16T10:06:44;3.50;;;0.47;;
37069;SDS011;22984;48.862;9.320;2022-10-16T10:09:20;2.97;;;0.75;;
37069;SDS011;22984;48.862;9.320;2022-10-16T10:14:30;4.50;;;0.65;;
37069;SDS011;22984;48.862;9.320;2022-10-16T10:19:37;2.22;;;0.90;;
37069;SDS011;22984;48.862;9.320;2022-10-16T10:30:05;2.90;;;0.73;;
37069;SDS011;22984;48.862;9.320;2022-10-16T10:35:58;3.75;;;0.70;;
37069;SDS011;22984;48.862;9.320;2022-10-16T10:40:51;1.08;;;0.80;;
37069;SDS011;22984;48.862;9.320;2022-10-16T10:45:54;5.95;;;0.85;;
37069;SDS011;22984;48.862;9.320;2022-10-16T10:53:54;4.60;;;0.90;;
37069;SDS011;22984;48.862;9.320;2022-10-16T11:01:45;2.30;;;0.70;;
37069;SDS011;22984;48.862;9.320;2022-10-16T11:06:44;2.10;;;0.70;;
37069;SDS011;22984;48.862;9.320;2022-10-16T11:09:16;4.75;;;0.80;;
37069;SDS011;22984;48.862;9.320;2022-10-16T11:11:45;2.50;;;0.70;;
37069;SDS011;22984;48.862;9.320;2022-10-16T11:14:19;4.72;;;0.70;;
37069;SDS011;22984;48.862;9.320;2022-10-16T11:16:48;5.18;;;0.57;;
37069;SDS011;22984;48.862;9.320;2022-10-16T11:22:04;2.63;;;0.55;;
37069;SDS011;22984;48.862;9.320;2022-10-16T11:24:41;3.20;;;1.25;;
37069;SDS011;22984;48.862;9.320;2022-10-16T11:27:09;3.80;;;0.63;;
37069;SDS011;22984;48.862;9.320;2022-10-16T11:29:42;4.77;;;0.60;;
37069;SDS011;22984;48.862;9.320;2022-10-16T11:32:17;2.88;;;0.60;;
37069;SDS011;22984;48.862;9.320;2022-10-16T11:34:47;1.98;;;0.90;;
37069;SDS011;22984;48.862;9.320;2022-10-16T11:37:17;4.57;;;0.70;;
37069;SDS011;22984;48.862;9.320;2022-10-16T11:39:45;3.20;;;0.60;;
37069;SDS011;22984;48.862;9.320;2022-10-16T11:49:59;6.90;;;0.60;;
37069;SDS011;22984;48.862;9.320;2022-10-16T11:52:28;2.03;;;0.60;;
37069;SDS011;22984;48.862;9.320;2022-10-16T11:54:59;3.87;;;0.67;;
37069;SDS011;22984;48.862;9.320;2022-10-16T11:57:27;4.95;;;0.75;;
37069;SDS011;22984;48.862;9.320;2022-10-16T12:02:35;5.35;;;0.70;;
37069;SDS011;22984;48.862;9.320;2022-10-16T12:08:01;4.57;;;0.50;;
37069;SDS011;22984;48.862;9.320;2022-10-16T12:10:29;1.23;;;0.50;;
37069;SDS011;22984;48.862;9.320;2022-10-16T12:13:02;2.53;;;0.52;;
37069;SDS011;22984;48.862;9.320;2022-10-16T12:15:30;4.60;;;0.55;;
37069;SDS011;22984;48.862;9.320;2022-10-16T12:17:56;2.27;;;0.57;;
37069;SDS011;22984;48.862;9.320;2022-10-16T12:20:24;3.95;;;0.60;;
37069;SDS011;22984;48.862;9.320;2022-10-16T12:22:55;1.48;;;0.63;;
37069;SDS011;22984;48.862;9.320;2022-10-16T12:25:26;4.13;;;0.55;;
37069;SDS011;22984;48.862;9.320;2022-10-16T12:30:23;4.07;;;0.93;;
37069;SDS011;22984;48.862;9.320;2022-10-16T12:32:53;2.88;;;0.82;;
37069;SDS011;22984;48.862;9.320;2022-10-16T12:35:24;4.43;;;0.80;;
37069;SDS011;22984;48.862;9.320;2022-10-16T12:37:50;4.53;;;0.98;;
37069;SDS011;22984;48.862;9.320;2022-10-16T12:40:29;1.60;;;0.80;;
37069;SDS011;22984;48.862;9.320;2022-10-16T12:42:56;2.70;;;0.75;;
37069;SDS011;22984;48.862;9.320;2022-10-16T12:45:24;1.90;;;0.63;;
37069;SDS011;22984;48.862;9.320;2022-10-16T12:47:51;6.70;;;0.68;;
37069;SDS011;22984;48.862;9.320;2022-10-16T12:50:23;3.40;;;0.80;;
37069;SDS011;22984;48.862;9.320;2022-10-16T12:52:49;5.20;;;1.00;;
37069;SDS011;22984;48.862;9.320;2022-10-16T12:55:19;4.60;;;0.93;;
37069;SDS011;22984;48.862;9.320;2022-10-16T13:00:29;2.67;;;0.70;;
37069;SDS011;22984;48.862;9.320;2022-10-16T13:15:38;2.40;;;0.57;;
37069;SDS011;22984;48.862;9.320;2022-10-16T13:18:14;2.65;;;0.50;;
37069;SDS011;22984;48.862;9.320;2022-10-16T13:23:32;2.90;;;0.75;;
37069;SDS011;22984;48.862;9.320;2022-10-16T13:26:14;1.90;;;0.57;;
37069;SDS011;22984;48.862;9.320;2022-10-16T13:28:42;2.40;;;0.80;;
37069;SDS011;22984;48.862;9.320;2022-10-16T13:31:26;5.83;;;0.80;;
37069;SDS011;22984;48.862;9.320;2022-10-16T13:33:54;3.85;;;1.33;;
37069;SDS011;22984;48.862;9.320;2022-10-16T13:38:47;4.78;;;0.82;;
37069;SDS011;22984;48.862;9.320;2022-10-16T13:41:15;5.25;;;1.08;;
37069;SDS011;22984;48.862;9.320;2022-10-16T13:43:48;1.45;;;0.73;;
37069;SDS011;22984;48.862;9.320;2022-10-16T13:46:16;2.13;;;0.77;;
37069;SDS011;22984;48.862;9.320;2022-10-16T13:48:42;4.60;;;0.90;;
37069;SDS011;22984;48.862;9.320;2022-10-16T13:51:13;5.50;;;0.82;;
37069;SDS011;22984;48.862;9.320;2022-10-16T13:53:40;3.85;;;0.90;;
37069;SDS011;22984;48.862;9.320;2022-10-16T13:56:13;4.80;;;0.70;;
37069;SDS011;22984;48.862;9.320;2022-10-16T13:58:39;4.20;;;0.80;;
37069;SDS011;22984;48.862;9.320;2022-10-16T14:01:15;2.97;;;0.80;;
37069;SDS011;22984;48.862;9.320;2022-10-16T14:03:41;4.70;;;1.55;;
37069;SDS011;22984;48.862;9.320;2022-10-16T14:06:11;2.70;;;0.70;;
37069;SDS011;22984;48.862;9.320;2022-10-16T14:08:40;3.30;;;0.90;;
37069;SDS011;22984;48.862;9.320;2022-10-16T14:11:07;0.65;;;0.60;;
37069;SDS011;22984;48.862;9.320;2022-10-16T14:13:37;4.78;;;0.63;;
37069;SDS011;22984;48.862;9.320;2022-10-16T14:16:07;4.50;;;0.65;;
37069;SDS011;22984;48.862;9.320;2022-10-16T14:18:34;1.83;;;0.70;;
37069;SDS011;22984;48.862;9.320;2022-10-16T14:21:05;3.10;;;0.60;;
37069;SDS011;22984;48.862;9.320;2022-10-16T14:23:38;3.03;;;0.88;;
37069;SDS011;22984;48.862;9.320;2022-10-16T14:28:34;4.28;;;1.13;;
37069;SDS011;22984;48.862;9.320;2022-10-16T14:31:01;5.05;;;1.10;;
37069;SDS011;22984;48.862;9.320;2022-10-16T14:38:27;6.00;;;0.90;;
37069;SDS011;22984;48.862;9.320;2022-10-16T14:40:54;2.00;;;1.20;;
37069;SDS011;22984;48.862;9.320;2022-10-16T14:43:26;2.40;;;0.70;;
37069;SDS011;22984;48.862;9.320;2022-10-16T14:45:55;2.78;;;0.80;;
37069;SDS011;22984;48.862;9.320;2022-10-16T14:48:22;2.92;;;1.00;;
37069;SDS011;22984;48.862;9.320;2022-10-16T14:50:48;4.65;;;0.98;;
37069;SDS011;22984;48.862;9.320;2022-10-16T14:53:14;1.63;;;1.08;;
37069;SDS011;22984;48.862;9.320;2022-10-16T14:55:40;3.60;;;1.05;;
37069;SDS011;22984;48.862;9.320;2022-10-16T14:58:17;2.50;;;1.00;;
37069;SDS011;22984;48.862;9.320;2022-10-16T15:00:44;2.33;;;0.80;;
37069;SDS011;22984;48.862;9.320;2022-10-16T15:03:11;1.43;;;0.80;;
37069;SDS011;22984;48.862;9.320;2022-10-16T15:05:37;2.20;;;1.02;;
37069;SDS011;22984;48.862;9.320;2022-10-16T15:08:03;4.40;;;1.00;;
37069;SDS011;22984;48.862;9.320;2022-10-16T15:10:33;1.33;;;0.98;;
37069;SDS011;22984;48.862;9.320;2022-10-16T15:13:01;3.08;;;0.88;;
37069;SDS011;22984;48.862;9.320;2022-10-16T15:15:37;6.00;;;0.90;;
37069;SDS011;22984;48.862;9.320;2022-10-16T15:18:05;4.63;;;0.90;;
37069;SDS011;22984;48.862;9.320;2022-10-16T15:20:32;4.90;;;0.95;;
37069;SDS011;22984;48.862;9.320;2022-10-16T15:23:03;3.90;;;0.60;;
37069;SDS011;22984;48.862;9.320;2022-10-16T15:27:55;2.13;;;0.73;;
37069;SDS011;22984;48.862;9.320;2022-10-16T15:30:21;2.03;;;0.75;;
37069;SDS011;22984;48.862;9.320;2022-10-16T15:32:47;7.78;;;1.20;;
37069;SDS011;22984;48.862;9.320;2022-10-16T15:35:13;4.10;;;1.45;;
37069;SDS011;22984;48.862;9.320;2022-10-16T15:37:39;3.60;;;0.82;;
37069;SDS011;22984;48.862;9.320;2022-10-16T15:40:06;2.40;;;0.90;;
37069;SDS011;22984;48.862;9.320;2022-10-16T15:42:32;2.05;;;0.95;;
37069;SDS011;22984;48.862;9.320;2022-10-16T15:44:58;3.58;;;0.90;;
37069;SDS011;22984;48.862;9.320;2022-10-16T15:47:24;4.77;;;1.20;;
37069;SDS011;22984;48.862;9.320;2022-10-16T15:49:50;5.30;;;0.80;;
37069;SDS011;22984;48.862;9.320;2022-10-16T15:52:16;5.13;;;0.93;;
37069;SDS011;22984;48.862;9.320;2022-10-16T15:54:42;6.95;;;1.73;;
37069;SDS011;22984;48.862;9.320;2022-10-16T15:57:09;5.93;;;1.08;;
37069;SDS011;22984;48.862;9.320;2022-10-16T15:59:35;5.72;;;1.50;;
37069;SDS011;22984;48.862;9.320;2022-10-16T16:02:01;5.82;;;1.45;;
37069;SDS011;22984;48.862;9.320;2022-10-16T16:04:29;3.40;;;1.50;;
37069;SDS011;22984;48.862;9.320;2022-10-16T16:06:55;2.28;;;1.00;;
37069;SDS011;22984;48.862;9.320;2022-10-16T16:09:22;1.80;;;1.13;;
37069;SDS011;22984;48.862;9.320;2022-10-16T16:11:48;5.32;;;1.00;;
37069;SDS011;22984;48.862;9.320;2022-10-16T16:14:16;5.78;;;1.00;;
37069;SDS011;22984;48.862;9.320;2022-10-16T16:16:42;8.98;;;1.00;;
37069;SDS011;22984;48.862;9.320;2022-10-16T16:19:08;4.72;;;1.02;;
37069;SDS011;22984;48.862;9.320;2022-10-16T16:21:34;6.25;;;1.00;;
37069;SDS011;22984;48.862;9.320;2022-10-16T16:24:00;4.82;;;1.00;;
37069;SDS011;22984;48.862;9.320;2022-10-16T16:26:32;7.78;;;1.30;;
37069;SDS011;22984;48.862;9.320;2022-10-16T16:29:01;8.35;;;1.40;;
37069;SDS011;22984;48.862;9.320;2022-10-16T16:31:29;10.45;;;1.08;;
37069;SDS011;22984;48.862;9.320;2022-10-16T16:33:55;6.72;;;1.08;;
37069;SDS011;22984;48.862;9.320;2022-10-16T16:36:22;9.53;;;1.60;;
37069;SDS011;22984;48.862;9.320;2022-10-16T16:38:49;3.92;;;1.00;;
37069;SDS011;22984;48.862;9.320;2022-10-16T16:41:19;9.05;;;1.60;;
37069;SDS011;22984;48.862;9.320;2022-10-16T16:43:45;5.90;;;1.80;;
37069;SDS011;22984;48.862;9.320;2022-10-16T16:46:12;4.35;;;1.42;;
37069;SDS011;22984;48.862;9.320;2022-10-16T16:48:38;7.40;;;1.45;;